createdAt,value
2023-05-22T00:00:20.003Z,45.92
2023-05-22T00:03:05.438Z,45.87
2023-05-22T00:05:53.207Z,45.91
2023-05-22T00:08:38.664Z,45.98
2023-05-22T00:11:23.847Z,46.00
2023-05-22T00:14:09.409Z,45.87
2023-05-22T00:16:56.330Z,46.06
2023-05-22T00:19:42.265Z,46.00
2023-05-22T00:22:28.322Z,46.02
2023-05-22T00:25:13.770Z,46.21
2023-05-22T00:27:59.074Z,46.03
2023-05-22T00:30:44.756Z,46.25
2023-05-22T00:33:29.853Z,46.36
2023-05-22T00:36:15.706Z,46.18
2023-05-22T00:39:00.937Z,46.32
2023-05-22T00:41:46.433Z,46.24
2023-05-22T00:44:31.669Z,46.30
2023-05-22T00:47:17.224Z,46.47
2023-05-22T00:50:03.376Z,46.49
2023-05-22T00:52:48.854Z,46.58
2023-05-22T00:55:34.153Z,46.57
2023-05-22T00:58:19.466Z,46.47
2023-05-22T01:01:07.642Z,46.71
2023-05-22T01:03:53.891Z,46.99
2023-05-22T01:06:41.324Z,46.76
2023-05-22T01:09:26.708Z,46.80
2023-05-22T01:12:48.814Z,46.83
2023-05-22T01:16:11.652Z,46.95
2023-05-22T01:19:08.900Z,46.97
2023-05-22T01:22:12.838Z,46.87
2023-05-22T01:25:07.621Z,47.01
2023-05-22T01:28:02.941Z,47.12
2023-05-22T01:31:01.910Z,47.38
2023-05-22T01:33:56.900Z,47.35
2023-05-22T01:36:46.069Z,47.35
2023-05-22T01:39:31.630Z,47.42
2023-05-22T01:42:17.640Z,47.29
2023-05-22T01:45:03.201Z,47.25
2023-05-22T01:47:48.731Z,47.25
2023-05-22T01:50:36.602Z,47.11
2023-05-22T01:53:35.477Z,47.29
2023-05-22T01:56:30.868Z,47.27
2023-05-22T01:59:50.802Z,47.35
2023-05-22T02:02:38.545Z,47.32
2023-05-22T02:05:25.681Z,47.30
2023-05-22T02:08:12.633Z,47.14
2023-05-22T02:11:02.117Z,47.21
2023-05-22T02:13:48.282Z,47.37
2023-05-22T02:16:33.437Z,47.17
2023-05-22T02:19:18.668Z,47.07
2023-05-22T02:22:05.801Z,47.26
2023-05-22T02:24:54.880Z,47.37
2023-05-22T02:27:41.836Z,47.39
2023-05-22T02:30:27.792Z,47.40
2023-05-22T02:33:17.838Z,47.51
2023-05-22T02:36:03.238Z,47.64
2023-05-22T02:38:48.584Z,47.70
2023-05-22T02:41:33.782Z,47.80
2023-05-22T02:44:19.050Z,47.79
2023-05-22T02:47:04.699Z,47.91
2023-05-22T02:49:50.701Z,47.99
2023-05-22T02:52:36.939Z,47.99
2023-05-22T02:55:22.711Z,48.13
2023-05-22T02:58:11.325Z,48.38
2023-05-22T03:00:56.263Z,48.42
2023-05-22T03:03:43.627Z,48.52
2023-05-22T03:06:29.562Z,48.42
2023-05-22T03:09:16.199Z,48.59
2023-05-22T03:12:01.490Z,48.83
2023-05-22T03:14:46.928Z,48.86
2023-05-22T03:17:32.304Z,48.96
2023-05-22T03:20:17.956Z,49.08
2023-05-22T03:23:04.192Z,49.29
2023-05-22T03:25:49.367Z,49.40
2023-05-22T03:28:34.694Z,49.30
2023-05-22T03:31:20.186Z,49.38
2023-05-22T03:34:27.415Z,49.46
2023-05-22T03:37:12.914Z,49.50
2023-05-22T03:39:58.473Z,49.60
2023-05-22T03:42:47.408Z,49.57
2023-05-22T03:45:33.590Z,49.36
2023-05-22T03:48:18.984Z,49.57
2023-05-22T03:51:04.546Z,49.88
2023-05-22T03:53:51.246Z,49.63
2023-05-22T03:56:36.307Z,49.77
2023-05-22T03:59:21.764Z,49.79
2023-05-22T04:02:06.827Z,49.87
2023-05-22T04:04:52.010Z,49.76
2023-05-22T04:07:37.431Z,49.93
2023-05-22T04:10:23.514Z,49.90
2023-05-22T04:13:08.845Z,49.92
2023-05-22T04:15:54.521Z,49.89
2023-05-22T04:18:39.714Z,49.88
2023-05-22T04:21:25.095Z,50.25
2023-05-22T04:24:10.837Z,50.11
2023-05-22T04:26:56.122Z,50.08
2023-05-22T04:29:41.590Z,50.39
2023-05-22T04:32:27.511Z,50.00
2023-05-22T04:35:13.027Z,50.14
2023-05-22T04:38:02.229Z,50.13
2023-05-22T04:40:48.337Z,49.96
2023-05-22T04:43:33.711Z,49.95
2023-05-22T04:46:19.379Z,49.88
2023-05-22T04:49:04.683Z,49.65
2023-05-22T04:51:50.180Z,49.83
2023-05-22T04:54:36.109Z,49.96
2023-05-22T04:57:22.233Z,50.10
2023-05-22T05:00:09.163Z,50.28
2023-05-22T05:02:58.112Z,50.80
2023-05-22T05:05:44.806Z,50.71
2023-05-22T05:08:30.402Z,50.26
2023-05-22T05:11:15.848Z,50.65
2023-05-22T05:14:01.093Z,50.88
2023-05-22T05:16:47.612Z,51.10
2023-05-22T05:19:35.463Z,51.25
2023-05-22T05:22:22.886Z,51.60
2023-05-22T05:25:11.444Z,51.51
2023-05-22T05:27:57.805Z,51.64
2023-05-22T05:30:43.340Z,52.11
2023-05-22T05:33:52.114Z,52.16
2023-05-22T05:36:49.848Z,52.18
2023-05-22T05:39:36.513Z,52.08
2023-05-22T05:42:24.301Z,52.25
2023-05-22T05:45:13.432Z,52.24
2023-05-22T05:47:58.577Z,52.14
2023-05-22T05:50:44.136Z,52.33
2023-05-22T05:53:29.788Z,52.13
2023-05-22T05:56:19.014Z,51.79
2023-05-22T05:59:04.480Z,51.62
2023-05-22T06:01:55.832Z,51.43
2023-05-22T06:04:48.294Z,51.10
2023-05-22T06:07:38.032Z,50.69
2023-05-22T06:10:24.113Z,51.07
2023-05-22T06:13:16.131Z,51.31
2023-05-22T06:16:06.348Z,51.29
2023-05-22T06:18:52.813Z,51.19
2023-05-22T06:21:38.396Z,51.25
2023-05-22T06:24:23.631Z,51.10
2023-05-22T06:27:09.056Z,50.92
2023-05-22T06:29:56.327Z,50.61
2023-05-22T06:32:43.452Z,50.28
2023-05-22T06:35:29.077Z,50.52
2023-05-22T06:38:14.575Z,50.21
2023-05-22T06:41:01.213Z,50.37
2023-05-22T06:43:46.597Z,50.44
2023-05-22T06:46:31.804Z,50.16
2023-05-22T06:49:21.029Z,50.24
2023-05-22T06:52:10.194Z,50.37
2023-05-22T06:55:04.123Z,50.15
2023-05-22T06:57:50.966Z,49.92
2023-05-22T07:00:36.661Z,49.75
2023-05-22T07:03:35.660Z,49.49
2023-05-22T07:06:41.761Z,49.94
2023-05-22T07:09:27.752Z,49.78
2023-05-22T07:12:13.516Z,50.21
2023-05-22T07:15:00.146Z,50.41
2023-05-22T07:17:46.510Z,50.55
2023-05-22T07:20:32.062Z,50.51
2023-05-22T07:23:30.967Z,50.04
2023-05-22T07:26:16.260Z,49.93
2023-05-22T07:29:09.579Z,49.82
2023-05-22T07:31:56.775Z,49.95
2023-05-22T07:34:44.554Z,49.56
2023-05-22T07:37:30.056Z,49.18
2023-05-22T07:40:15.381Z,48.90
2023-05-22T07:43:00.511Z,48.31
2023-05-22T07:45:46.080Z,48.21
2023-05-22T07:48:33.882Z,48.31
2023-05-22T07:51:19.180Z,48.08
2023-05-22T07:54:08.107Z,47.71
2023-05-22T07:56:56.118Z,47.67
2023-05-22T07:59:44.037Z,47.05
2023-05-22T08:02:29.526Z,46.87
2023-05-22T08:05:15.049Z,46.63
2023-05-22T08:08:00.852Z,45.89
2023-05-22T08:10:58.233Z,45.49
2023-05-22T08:13:48.157Z,45.40
2023-05-22T08:16:33.582Z,45.68
2023-05-22T08:19:19.031Z,45.52
2023-05-22T08:22:04.669Z,45.19
2023-05-22T08:24:49.914Z,44.77
2023-05-22T08:27:35.089Z,44.74
2023-05-22T08:30:20.586Z,45.14
2023-05-22T08:33:05.758Z,44.68
2023-05-22T08:35:51.032Z,44.40
2023-05-22T08:38:37.094Z,44.60
2023-05-22T08:41:22.707Z,44.53
2023-05-22T08:44:07.797Z,44.04
2023-05-22T08:46:56.499Z,44.14
2023-05-22T08:49:42.317Z,43.30
2023-05-22T08:52:42.569Z,42.87
2023-05-22T08:55:28.555Z,42.67
2023-05-22T08:58:14.495Z,42.87
2023-05-22T09:00:59.967Z,42.49
2023-05-22T09:03:46.226Z,42.20
2023-05-22T09:06:32.007Z,42.38
2023-05-22T09:09:17.843Z,42.47
2023-05-22T09:12:03.162Z,42.02
2023-05-22T09:14:48.378Z,41.41
2023-05-22T09:17:33.627Z,40.82
2023-05-22T09:20:18.816Z,40.27
2023-05-22T09:23:15.528Z,39.67
2023-05-22T09:26:02.464Z,40.03
2023-05-22T09:28:47.821Z,40.08
2023-05-22T09:31:40.970Z,39.96
2023-05-22T09:34:30.062Z,39.24
2023-05-22T09:37:16.460Z,39.35
2023-05-22T09:40:11.070Z,40.06
2023-05-22T09:42:56.661Z,39.61
2023-05-22T09:45:42.265Z,39.37
2023-05-22T09:48:27.500Z,40.10
2023-05-22T09:51:13.719Z,39.55
2023-05-22T09:54:03.816Z,39.36
2023-05-22T09:56:50.622Z,38.83
2023-05-22T09:59:40.209Z,39.11
2023-05-22T10:02:27.021Z,38.74
2023-05-22T10:05:21.863Z,38.09
2023-05-22T10:08:38.266Z,38.03
2023-05-22T10:11:30.980Z,37.80
2023-05-22T10:14:16.680Z,37.47
2023-05-22T10:17:04.462Z,38.16
2023-05-22T10:19:51.735Z,38.09
2023-05-22T10:22:38.209Z,37.91
2023-05-22T10:25:23.793Z,38.39
2023-05-22T10:28:10.399Z,37.98
2023-05-22T10:31:02.039Z,37.67
2023-05-22T10:34:28.447Z,37.48
2023-05-22T10:37:37.876Z,37.36
2023-05-22T10:40:36.361Z,36.51
2023-05-22T10:43:22.730Z,37.06
2023-05-22T10:46:09.656Z,37.44
2023-05-22T10:48:57.438Z,36.25
2023-05-22T10:51:45.174Z,36.65
2023-05-22T10:54:44.161Z,35.90
2023-05-22T10:57:35.578Z,35.58
2023-05-22T11:00:24.565Z,36.00
2023-05-22T11:03:18.282Z,36.50
2023-05-22T11:06:04.013Z,35.99
2023-05-22T11:08:50.001Z,35.67
2023-05-22T11:11:35.525Z,35.49
2023-05-22T11:14:21.045Z,35.01
2023-05-22T11:17:07.007Z,34.77
2023-05-22T11:20:00.801Z,34.64
2023-05-22T11:23:00.024Z,34.56
2023-05-22T11:25:45.890Z,34.68
2023-05-22T11:28:31.952Z,34.45
2023-05-22T11:31:18.871Z,33.48
2023-05-22T11:34:04.784Z,33.96
2023-05-22T11:36:52.199Z,34.15
2023-05-22T11:39:37.625Z,33.68
2023-05-22T11:42:23.002Z,33.87
2023-05-22T11:45:11.631Z,33.36
2023-05-22T11:47:57.480Z,32.88
2023-05-22T11:50:44.261Z,32.68
2023-05-22T11:53:32.764Z,32.39
2023-05-22T11:56:21.724Z,32.00
2023-05-22T11:59:07.599Z,32.00
2023-05-22T12:01:53.051Z,31.58
2023-05-22T12:04:38.175Z,31.81
2023-05-22T12:07:25.891Z,31.67
2023-05-22T12:10:12.373Z,31.95
2023-05-22T12:12:57.847Z,31.75
2023-05-22T12:15:43.189Z,31.61
2023-05-22T12:18:38.691Z,32.04
2023-05-22T12:21:24.268Z,32.11
2023-05-22T12:24:10.055Z,31.56
2023-05-22T12:26:56.491Z,31.08
2023-05-22T12:29:42.821Z,30.77
2023-05-22T12:32:29.689Z,30.90
2023-05-22T12:35:16.862Z,30.81
2023-05-22T12:38:02.429Z,30.41
2023-05-22T12:40:49.388Z,30.62
2023-05-22T12:43:35.522Z,30.72
2023-05-22T12:46:20.820Z,30.65
2023-05-22T12:49:06.169Z,30.76
2023-05-22T12:51:51.299Z,30.49
2023-05-22T12:54:36.845Z,30.27
2023-05-22T12:57:22.072Z,30.38
2023-05-22T13:00:07.772Z,30.33
2023-05-22T13:02:53.654Z,30.34
2023-05-22T13:05:39.339Z,30.23
2023-05-22T13:08:25.429Z,29.90
2023-05-22T13:11:11.406Z,30.41
2023-05-22T13:13:56.531Z,29.88
2023-05-22T13:16:42.031Z,29.57
2023-05-22T13:19:27.760Z,29.49
2023-05-22T13:22:14.736Z,29.40
2023-05-22T13:25:00.517Z,29.36
2023-05-22T13:27:46.279Z,28.68
2023-05-22T13:30:32.221Z,28.59
2023-05-22T13:33:18.000Z,28.73
2023-05-22T13:36:04.339Z,28.61
2023-05-22T13:38:49.851Z,28.98
2023-05-22T13:41:35.292Z,28.63
2023-05-22T13:44:21.209Z,28.52
2023-05-22T13:47:06.578Z,27.71
2023-05-22T13:49:52.248Z,27.83
2023-05-22T13:52:37.610Z,27.48
2023-05-22T13:55:23.029Z,27.55
2023-05-22T13:58:08.234Z,27.61
2023-05-22T14:00:53.411Z,27.70
2023-05-22T14:03:38.765Z,27.46
2023-05-22T14:06:24.582Z,27.61
2023-05-22T14:09:09.771Z,27.21
2023-05-22T14:11:55.002Z,27.40
2023-05-22T14:14:40.579Z,26.85
2023-05-22T14:17:25.837Z,26.68
2023-05-22T14:20:11.478Z,26.77
2023-05-22T14:22:58.401Z,26.62
2023-05-22T14:25:44.321Z,27.37
2023-05-22T14:28:31.634Z,26.70
2023-05-22T14:31:17.188Z,26.59
2023-05-22T14:34:02.601Z,26.54
2023-05-22T14:36:48.582Z,26.39
2023-05-22T14:39:33.906Z,26.21
2023-05-22T14:42:19.324Z,26.24
2023-05-22T14:45:05.475Z,26.19
2023-05-22T14:47:50.990Z,26.07
2023-05-22T14:50:36.505Z,25.91
2023-05-22T14:53:22.449Z,25.74
2023-05-22T14:56:07.646Z,26.21
2023-05-22T14:58:52.955Z,26.35
2023-05-22T15:01:39.200Z,26.06
2023-05-22T15:04:24.896Z,26.23
2023-05-22T15:07:09.936Z,26.56
2023-05-22T15:09:56.431Z,26.45
2023-05-22T15:12:41.543Z,26.03
2023-05-22T15:15:26.741Z,25.85
2023-05-22T15:18:13.043Z,26.14
2023-05-22T15:20:58.131Z,25.89
2023-05-22T15:23:43.579Z,26.17
2023-05-22T15:26:28.853Z,25.76
2023-05-22T15:29:14.211Z,25.83
2023-05-22T15:31:59.607Z,25.88
2023-05-22T15:34:45.488Z,26.06
2023-05-22T15:37:32.523Z,26.07
2023-05-22T15:40:22.418Z,25.86
2023-05-22T15:43:07.872Z,25.60
2023-05-22T15:45:53.377Z,25.83
2023-05-22T15:48:38.959Z,26.08
2023-05-22T15:51:24.256Z,26.08
2023-05-22T15:54:10.493Z,25.99
2023-05-22T15:56:55.459Z,26.43
2023-05-22T15:59:40.907Z,26.42
2023-05-22T16:02:26.444Z,26.83
2023-05-22T16:05:11.957Z,26.72
2023-05-22T16:07:57.191Z,26.73
2023-05-22T16:10:44.405Z,26.20
2023-05-22T16:13:30.190Z,26.27
2023-05-22T16:16:16.313Z,26.36
2023-05-22T16:19:01.794Z,26.72
2023-05-22T16:21:46.951Z,26.41
2023-05-22T16:24:32.013Z,26.69
2023-05-22T16:27:17.548Z,26.62
2023-05-22T16:30:02.833Z,26.55
2023-05-22T16:32:48.582Z,27.46
2023-05-22T16:35:34.485Z,30.74
2023-05-22T16:38:19.960Z,28.39
2023-05-22T16:41:06.716Z,28.73
2023-05-22T16:43:51.869Z,30.36
2023-05-22T16:46:37.415Z,27.50
2023-05-22T16:49:22.524Z,29.60
2023-05-22T16:52:07.702Z,28.92
2023-05-22T16:54:53.475Z,27.90
2023-05-22T16:57:39.595Z,30.57
2023-05-22T17:00:26.670Z,28.70
2023-05-22T17:03:13.028Z,30.30
2023-05-22T17:05:58.815Z,28.67
2023-05-22T17:08:44.076Z,31.76
2023-05-22T17:11:29.352Z,29.26
2023-05-22T17:14:14.849Z,28.67
2023-05-22T17:17:00.146Z,28.61
2023-05-22T17:19:45.250Z,28.25
2023-05-22T17:22:30.696Z,28.90
2023-05-22T17:25:16.102Z,28.50
2023-05-22T17:28:01.400Z,28.55
2023-05-22T17:30:47.130Z,28.84
2023-05-22T17:33:33.411Z,28.77
2023-05-22T17:36:18.929Z,28.92
2023-05-22T17:39:04.124Z,28.66
2023-05-22T17:41:49.322Z,29.19
2023-05-22T17:44:34.559Z,28.87
2023-05-22T17:47:19.729Z,29.23
2023-05-22T17:50:05.673Z,29.72
2023-05-22T17:52:51.299Z,29.69
2023-05-22T17:55:36.628Z,29.88
2023-05-22T17:58:21.962Z,29.74
2023-05-22T18:01:06.931Z,29.73
2023-05-22T18:03:52.781Z,29.42
2023-05-22T18:06:38.098Z,29.57
2023-05-22T18:09:23.248Z,29.74
2023-05-22T18:12:15.205Z,30.05
2023-05-22T18:15:11.945Z,30.25
2023-05-22T18:17:57.589Z,30.13
2023-05-22T18:20:43.022Z,29.96
2023-05-22T18:23:28.246Z,35.66
2023-05-22T18:26:13.507Z,32.03
2023-05-22T18:28:59.091Z,31.17
2023-05-22T18:31:44.678Z,31.80
2023-05-22T18:34:29.874Z,30.70
2023-05-22T18:37:16.376Z,30.56
2023-05-22T18:40:01.925Z,31.03
2023-05-22T18:42:47.262Z,30.77
2023-05-22T18:45:32.540Z,31.20
2023-05-22T18:48:18.050Z,31.72
2023-05-22T18:51:03.869Z,31.49
2023-05-22T18:53:51.474Z,31.78
2023-05-22T18:56:37.207Z,31.90
2023-05-22T18:59:22.745Z,32.26
2023-05-22T19:02:08.017Z,32.23
2023-05-22T19:04:53.401Z,32.72
2023-05-22T19:07:38.811Z,32.40
2023-05-22T19:10:23.878Z,32.65
2023-05-22T19:13:09.276Z,32.76
2023-05-22T19:15:55.250Z,32.67
2023-05-22T19:18:40.519Z,32.56
2023-05-22T19:21:26.584Z,33.02
2023-05-22T19:24:11.751Z,33.42
2023-05-22T19:26:57.312Z,32.89
2023-05-22T19:29:46.027Z,33.05
2023-05-22T19:32:31.367Z,33.51
2023-05-22T19:35:18.043Z,33.35
2023-05-22T19:38:03.494Z,33.55
2023-05-22T19:40:48.798Z,33.61
2023-05-22T19:43:34.005Z,33.32
2023-05-22T19:46:19.163Z,33.77
2023-05-22T19:49:04.608Z,33.65
2023-05-22T19:51:49.949Z,33.86
2023-05-22T19:54:35.754Z,34.04
2023-05-22T19:57:21.134Z,34.37
2023-05-22T20:00:07.537Z,34.23
2023-05-22T20:02:52.923Z,34.63
2023-05-22T20:05:38.204Z,34.37
2023-05-22T20:08:25.299Z,34.48
2023-05-22T20:11:10.921Z,34.64
2023-05-22T20:13:56.323Z,34.82
2023-05-22T20:16:42.108Z,35.03
2023-05-22T20:19:28.298Z,35.45
2023-05-22T20:22:13.748Z,35.61
2023-05-22T20:24:59.082Z,35.17
2023-05-22T20:27:44.476Z,35.35
2023-05-22T20:30:29.754Z,35.56
2023-05-22T20:33:14.924Z,35.67
2023-05-22T20:36:01.422Z,35.77
2023-05-22T20:38:46.486Z,35.75
2023-05-22T20:41:33.821Z,36.24
2023-05-22T20:44:23.529Z,36.20
2023-05-22T20:47:09.607Z,36.41
2023-05-22T20:49:54.658Z,36.67
2023-05-22T20:52:40.078Z,36.94
2023-05-22T20:55:25.581Z,36.82
2023-05-22T20:58:11.194Z,36.95
2023-05-22T21:00:56.555Z,37.11
2023-05-22T21:03:41.700Z,37.49
2023-05-22T21:06:26.880Z,37.28
2023-05-22T21:09:11.925Z,37.52
2023-05-22T21:11:57.380Z,37.54
2023-05-22T21:14:43.994Z,37.64
2023-05-22T21:17:29.430Z,38.00
2023-05-22T21:20:14.857Z,38.66
2023-05-22T21:23:00.263Z,38.06
2023-05-22T21:25:45.844Z,38.10
2023-05-22T21:28:30.853Z,38.40
2023-05-22T21:31:16.293Z,38.26
2023-05-22T21:34:02.411Z,38.48
2023-05-22T21:36:48.978Z,38.48
2023-05-22T21:39:34.564Z,38.77
2023-05-22T21:45:06.128Z,38.76
2023-05-22T21:47:51.472Z,38.91
2023-05-22T21:50:36.833Z,38.77
2023-05-22T21:53:22.219Z,38.98
2023-05-22T21:56:08.388Z,39.08
2023-05-22T21:58:53.412Z,39.46
2023-05-22T22:01:38.969Z,39.51
2023-05-22T22:04:24.099Z,39.78
2023-05-22T22:07:09.308Z,39.44
2023-05-22T22:09:54.770Z,39.71
2023-05-22T22:12:40.186Z,40.01
2023-05-22T22:15:25.605Z,40.22
2023-05-22T22:18:14.898Z,40.16
2023-05-22T22:21:02.333Z,40.08
2023-05-22T22:23:47.786Z,40.18
2023-05-22T22:26:33.120Z,40.18
2023-05-22T22:29:18.284Z,40.22
2023-05-22T22:32:03.887Z,40.32
2023-05-22T22:34:53.588Z,40.35
2023-05-22T22:37:39.025Z,40.52
2023-05-22T22:40:26.069Z,40.57
2023-05-22T22:43:12.268Z,40.76
2023-05-22T22:45:57.644Z,40.67
2023-05-22T22:48:43.608Z,40.77
2023-05-22T22:51:31.872Z,40.83
2023-05-22T22:54:17.761Z,41.00
2023-05-22T22:57:16.356Z,41.04
2023-05-22T23:00:06.221Z,41.13
2023-05-22T23:02:57.892Z,41.06
2023-05-22T23:05:43.945Z,41.21
2023-05-22T23:08:32.313Z,41.40
2023-05-22T23:11:17.832Z,41.22
2023-05-22T23:14:08.278Z,41.31
2023-05-22T23:16:53.936Z,41.48
2023-05-22T23:19:38.973Z,41.31
2023-05-22T23:22:24.605Z,41.39
2023-05-22T23:25:10.113Z,41.46
2023-05-22T23:27:55.917Z,41.55
2023-05-22T23:30:41.367Z,41.70
2023-05-22T23:33:26.716Z,41.40
2023-05-22T23:36:12.346Z,41.50
2023-05-22T23:38:57.581Z,41.74
2023-05-22T23:41:42.783Z,41.77
2023-05-22T23:44:30.213Z,41.72
2023-05-22T23:47:16.699Z,41.78
2023-05-22T23:50:01.794Z,41.83
2023-05-22T23:52:48.176Z,41.87
2023-05-22T23:55:33.478Z,41.88
2023-05-22T23:58:19.065Z,41.97
